sensor_id;sensor_type;location;lat;lon;timestamp;P1;durP1;ratioP1;P2;durP2;ratioP2
8331;SDS011;4203;48.144;14.118;2023-04-15T00:01:44;6.43;;;5.80;;
8331;SDS011;4203;48.144;14.118;2023-04-15T00:04:13;5.40;;;4.90;;
8331;SDS011;4203;48.144;14.118;2023-04-15T00:06:40;5.20;;;4.80;;
8331;SDS011;4203;48.144;14.118;2023-04-15T00:09:07;6.10;;;5.60;;
8331;SDS011;4203;48.144;14.118;2023-04-15T00:11:36;5.90;;;5.40;;
8331;SDS011;4203;48.144;14.118;2023-04-15T00:14:04;6.53;;;5.67;;
8331;SDS011;4203;48.144;14.118;2023-04-15T00:16:31;5.90;;;5.30;;
8331;SDS011;4203;48.144;14.118;2023-04-15T00:18:58;6.40;;;5.80;;
8331;SDS011;4203;48.144;14.118;2023-04-15T00:21:27;6.70;;;5.50;;
8331;SDS011;4203;48.144;14.118;2023-04-15T00:23:54;5.60;;;5.20;;
8331;SDS011;4203;48.144;14.118;2023-04-15T00:26:21;6.23;;;5.73;;
8331;SDS011;4203;48.144;14.118;2023-04-15T00:28:48;6.03;;;5.53;;
8331;SDS011;4203;48.144;14.118;2023-04-15T00:31:16;6.27;;;5.10;;
8331;SDS011;4203;48.144;14.118;2023-04-15T00:33:43;5.70;;;5.30;;
8331;SDS011;4203;48.144;14.118;2023-04-15T00:36:10;5.57;;;5.17;;
8331;SDS011;4203;48.144;14.118;2023-04-15T00:38:39;5.80;;;5.40;;
8331;SDS011;4203;48.144;14.118;2023-04-15T00:41:06;5.57;;;5.17;;
8331;SDS011;4203;48.144;14.118;2023-04-15T00:43:33;5.53;;;5.13;;
8331;SDS011;4203;48.144;14.118;2023-04-15T00:46:00;5.43;;;4.93;;
8331;SDS011;4203;48.144;14.118;2023-04-15T00:48:29;5.40;;;4.93;;
8331;SDS011;4203;48.144;14.118;2023-04-15T00:50:57;5.17;;;4.77;;
8331;SDS011;4203;48.144;14.118;2023-04-15T00:53:25;5.80;;;5.30;;
8331;SDS011;4203;48.144;14.118;2023-04-15T00:55:53;5.30;;;4.90;;
8331;SDS011;4203;48.144;14.118;2023-04-15T00:58:21;5.27;;;4.87;;
8331;SDS011;4203;48.144;14.118;2023-04-15T01:00:48;4.70;;;4.30;;
8331;SDS011;4203;48.144;14.118;2023-04-15T01:03:18;5.87;;;5.37;;
8331;SDS011;4203;48.144;14.118;2023-04-15T01:05:46;5.70;;;5.20;;
8331;SDS011;4203;48.144;14.118;2023-04-15T01:08:13;5.83;;;5.33;;
8331;SDS011;4203;48.144;14.118;2023-04-15T01:10:40;5.33;;;4.93;;
8331;SDS011;4203;48.144;14.118;2023-04-15T01:13:09;5.93;;;5.43;;
8331;SDS011;4203;48.144;14.118;2023-04-15T01:15:36;5.27;;;4.87;;
8331;SDS011;4203;48.144;14.118;2023-04-15T01:18:04;5.80;;;5.20;;
8331;SDS011;4203;48.144;14.118;2023-04-15T01:20:31;5.00;;;4.70;;
8331;SDS011;4203;48.144;14.118;2023-04-15T01:23:00;5.97;;;5.47;;
8331;SDS011;4203;48.144;14.118;2023-04-15T01:25:31;5.67;;;5.17;;
8331;SDS011;4203;48.144;14.118;2023-04-15T01:27:59;6.27;;;5.67;;
8331;SDS011;4203;48.144;14.118;2023-04-15T01:30:27;6.53;;;5.93;;
8331;SDS011;4203;48.144;14.118;2023-04-15T01:32:54;5.90;;;5.40;;
8331;SDS011;4203;48.144;14.118;2023-04-15T01:35:21;5.70;;;5.20;;
8331;SDS011;4203;48.144;14.118;2023-04-15T01:37:49;5.80;;;5.30;;
8331;SDS011;4203;48.144;14.118;2023-04-15T01:40:16;6.20;;;5.60;;
8331;SDS011;4203;48.144;14.118;2023-04-15T01:42:45;5.80;;;5.30;;
8331;SDS011;4203;48.144;14.118;2023-04-15T01:45:12;5.30;;;4.80;;
8331;SDS011;4203;48.144;14.118;2023-04-15T01:47:39;4.83;;;4.33;;
8331;SDS011;4203;48.144;14.118;2023-04-15T01:50:06;5.27;;;4.63;;
8331;SDS011;4203;48.144;14.118;2023-04-15T01:52:34;4.07;;;3.77;;
8331;SDS011;4203;48.144;14.118;2023-04-15T01:55:01;4.57;;;4.03;;
8331;SDS011;4203;48.144;14.118;2023-04-15T01:57:28;4.37;;;4.00;;
8331;SDS011;4203;48.144;14.118;2023-04-15T01:59:57;4.67;;;4.27;;
8331;SDS011;4203;48.144;14.118;2023-04-15T02:02:25;4.77;;;4.37;;
8331;SDS011;4203;48.144;14.118;2023-04-15T02:04:52;4.67;;;4.27;;
8331;SDS011;4203;48.144;14.118;2023-04-15T02:07:19;4.97;;;4.57;;
8331;SDS011;4203;48.144;14.118;2023-04-15T02:09:47;5.57;;;5.07;;
8331;SDS011;4203;48.144;14.118;2023-04-15T02:12:14;5.47;;;4.97;;
8331;SDS011;4203;48.144;14.118;2023-04-15T02:14:41;5.80;;;5.23;;
8331;SDS011;4203;48.144;14.118;2023-04-15T02:17:10;6.30;;;5.80;;
8331;SDS011;4203;48.144;14.118;2023-04-15T02:19:37;5.63;;;5.13;;
8331;SDS011;4203;48.144;14.118;2023-04-15T02:22:04;6.97;;;6.27;;
8331;SDS011;4203;48.144;14.118;2023-04-15T02:24:33;7.27;;;6.67;;
8331;SDS011;4203;48.144;14.118;2023-04-15T02:27:00;7.37;;;6.03;;
8331;SDS011;4203;48.144;14.118;2023-04-15T02:29:28;7.20;;;6.50;;
8331;SDS011;4203;48.144;14.118;2023-04-15T02:31:58;7.63;;;6.93;;
8331;SDS011;4203;48.144;14.118;2023-04-15T02:34:26;7.93;;;7.17;;
8331;SDS011;4203;48.144;14.118;2023-04-15T02:36:54;7.57;;;6.87;;
8331;SDS011;4203;48.144;14.118;2023-04-15T02:39:21;6.47;;;5.87;;
8331;SDS011;4203;48.144;14.118;2023-04-15T02:41:50;7.17;;;6.47;;
8331;SDS011;4203;48.144;14.118;2023-04-15T02:44:17;7.23;;;6.53;;
8331;SDS011;4203;48.144;14.118;2023-04-15T02:46:44;7.27;;;6.57;;
8331;SDS011;4203;48.144;14.118;2023-04-15T02:49:14;7.60;;;6.43;;
8331;SDS011;4203;48.144;14.118;2023-04-15T02:51:43;7.10;;;6.50;;
8331;SDS011;4203;48.144;14.118;2023-04-15T02:54:13;5.70;;;5.17;;
8331;SDS011;4203;48.144;14.118;2023-04-15T02:56:40;5.20;;;4.73;;
8331;SDS011;4203;48.144;14.118;2023-04-15T02:59:07;5.13;;;4.73;;
8331;SDS011;4203;48.144;14.118;2023-04-15T03:01:35;5.43;;;4.53;;
8331;SDS011;4203;48.144;14.118;2023-04-15T03:04:02;4.00;;;3.70;;
8331;SDS011;4203;48.144;14.118;2023-04-15T03:06:30;4.10;;;3.80;;
8331;SDS011;4203;48.144;14.118;2023-04-15T03:08:58;4.23;;;3.80;;
8331;SDS011;4203;48.144;14.118;2023-04-15T03:11:26;4.70;;;4.30;;
8331;SDS011;4203;48.144;14.118;2023-04-15T03:13:54;4.77;;;4.37;;
8331;SDS011;4203;48.144;14.118;2023-04-15T03:16:21;5.00;;;4.60;;
8331;SDS011;4203;48.144;14.118;2023-04-15T03:18:48;6.40;;;4.90;;
8331;SDS011;4203;48.144;14.118;2023-04-15T03:21:15;6.17;;;5.00;;
8331;SDS011;4203;48.144;14.118;2023-04-15T03:23:44;6.07;;;5.47;;
8331;SDS011;4203;48.144;14.118;2023-04-15T03:26:24;5.80;;;5.30;;
8331;SDS011;4203;48.144;14.118;2023-04-15T03:28:52;6.63;;;5.90;;
8331;SDS011;4203;48.144;14.118;2023-04-15T03:31:20;6.70;;;5.90;;
8331;SDS011;4203;48.144;14.118;2023-04-15T03:33:47;5.83;;;5.30;;
8331;SDS011;4203;48.144;14.118;2023-04-15T03:36:14;6.57;;;5.97;;
8331;SDS011;4203;48.144;14.118;2023-04-15T03:38:42;6.83;;;6.23;;
8331;SDS011;4203;48.144;14.118;2023-04-15T03:41:09;7.27;;;6.57;;
8331;SDS011;4203;48.144;14.118;2023-04-15T03:43:38;6.67;;;6.00;;
8331;SDS011;4203;48.144;14.118;2023-04-15T03:46:05;6.83;;;6.23;;
8331;SDS011;4203;48.144;14.118;2023-04-15T03:48:32;6.30;;;5.70;;
8331;SDS011;4203;48.144;14.118;2023-04-15T03:51:00;4.90;;;4.50;;
8331;SDS011;4203;48.144;14.118;2023-04-15T03:53:27;5.03;;;4.63;;
8331;SDS011;4203;48.144;14.118;2023-04-15T03:55:54;7.93;;;3.97;;
8331;SDS011;4203;48.144;14.118;2023-04-15T03:58:21;4.40;;;4.10;;
8331;SDS011;4203;48.144;14.118;2023-04-15T04:00:50;4.17;;;3.87;;
8331;SDS011;4203;48.144;14.118;2023-04-15T04:03:17;4.13;;;3.83;;
8331;SDS011;4203;48.144;14.118;2023-04-15T04:05:44;3.97;;;3.57;;
8331;SDS011;4203;48.144;14.118;2023-04-15T04:08:12;3.50;;;3.20;;
8331;SDS011;4203;48.144;14.118;2023-04-15T04:10:41;3.73;;;3.50;;
8331;SDS011;4203;48.144;14.118;2023-04-15T04:13:08;3.80;;;3.50;;
8331;SDS011;4203;48.144;14.118;2023-04-15T04:15:35;3.77;;;3.47;;
8331;SDS011;4203;48.144;14.118;2023-04-15T04:18:04;6.23;;;3.57;;
8331;SDS011;4203;48.144;14.118;2023-04-15T04:20:31;4.20;;;3.90;;
8331;SDS011;4203;48.144;14.118;2023-04-15T04:22:59;4.40;;;4.00;;
8331;SDS011;4203;48.144;14.118;2023-04-15T04:25:26;5.50;;;4.50;;
8331;SDS011;4203;48.144;14.118;2023-04-15T04:27:53;3.53;;;3.30;;
8331;SDS011;4203;48.144;14.118;2023-04-15T04:30:20;4.07;;;3.77;;
8331;SDS011;4203;48.144;14.118;2023-04-15T04:32:48;3.30;;;3.10;;
8331;SDS011;4203;48.144;14.118;2023-04-15T04:35:17;2.90;;;2.70;;
8331;SDS011;4203;48.144;14.118;2023-04-15T04:37:44;2.33;;;2.23;;
8331;SDS011;4203;48.144;14.118;2023-04-15T04:40:12;2.67;;;2.47;;
8331;SDS011;4203;48.144;14.118;2023-04-15T04:42:39;2.73;;;2.40;;
8331;SDS011;4203;48.144;14.118;2023-04-15T04:45:06;3.00;;;2.80;;
8331;SDS011;4203;48.144;14.118;2023-04-15T04:47:34;2.97;;;2.77;;
8331;SDS011;4203;48.144;14.118;2023-04-15T04:50:01;2.83;;;2.63;;
8331;SDS011;4203;48.144;14.118;2023-04-15T04:52:30;2.87;;;2.67;;
8331;SDS011;4203;48.144;14.118;2023-04-15T04:54:57;3.07;;;2.87;;
8331;SDS011;4203;48.144;14.118;2023-04-15T04:57:24;3.17;;;2.97;;
8331;SDS011;4203;48.144;14.118;2023-04-15T04:59:52;3.33;;;3.03;;
8331;SDS011;4203;48.144;14.118;2023-04-15T05:02:19;4.17;;;3.87;;
8331;SDS011;4203;48.144;14.118;2023-04-15T05:04:46;4.20;;;3.80;;
8331;SDS011;4203;48.144;14.118;2023-04-15T05:07:14;4.53;;;4.13;;
8331;SDS011;4203;48.144;14.118;2023-04-15T05:09:42;3.47;;;3.27;;
8331;SDS011;4203;48.144;14.118;2023-04-15T05:12:10;3.20;;;3.00;;
8331;SDS011;4203;48.144;14.118;2023-04-15T05:14:39;3.43;;;3.20;;
8331;SDS011;4203;48.144;14.118;2023-04-15T05:17:06;4.03;;;3.73;;
8331;SDS011;4203;48.144;14.118;2023-04-15T05:19:33;3.60;;;3.40;;
8331;SDS011;4203;48.144;14.118;2023-04-15T05:22:01;4.20;;;3.90;;
8331;SDS011;4203;48.144;14.118;2023-04-15T05:24:28;4.13;;;3.83;;
8331;SDS011;4203;48.144;14.118;2023-04-15T05:26:57;4.13;;;3.83;;
8331;SDS011;4203;48.144;14.118;2023-04-15T05:29:26;4.27;;;3.97;;
8331;SDS011;4203;48.144;14.118;2023-04-15T05:31:53;4.73;;;4.30;;
8331;SDS011;4203;48.144;14.118;2023-04-15T05:34:20;3.93;;;3.67;;
8331;SDS011;4203;48.144;14.118;2023-04-15T05:36:48;9.33;;;8.53;;
8331;SDS011;4203;48.144;14.118;2023-04-15T05:39:15;4.00;;;3.70;;
8331;SDS011;4203;48.144;14.118;2023-04-15T05:41:42;4.00;;;3.70;;
8331;SDS011;4203;48.144;14.118;2023-04-15T05:44:11;3.47;;;3.27;;
8331;SDS011;4203;48.144;14.118;2023-04-15T05:46:38;3.27;;;3.07;;
8331;SDS011;4203;48.144;14.118;2023-04-15T05:49:05;3.47;;;3.23;;
8331;SDS011;4203;48.144;14.118;2023-04-15T05:51:33;5.87;;;5.30;;
8331;SDS011;4203;48.144;14.118;2023-04-15T05:54:00;6.70;;;6.20;;
8331;SDS011;4203;48.144;14.118;2023-04-15T05:56:27;4.50;;;4.20;;
8331;SDS011;4203;48.144;14.118;2023-04-15T05:58:54;4.03;;;3.73;;
8331;SDS011;4203;48.144;14.118;2023-04-15T06:01:24;3.47;;;3.27;;
8331;SDS011;4203;48.144;14.118;2023-04-15T06:03:51;3.10;;;2.90;;
8331;SDS011;4203;48.144;14.118;2023-04-15T06:06:18;3.13;;;2.73;;
8331;SDS011;4203;48.144;14.118;2023-04-15T06:08:45;3.03;;;2.83;;
8331;SDS011;4203;48.144;14.118;2023-04-15T06:11:13;3.27;;;3.03;;
8331;SDS011;4203;48.144;14.118;2023-04-15T06:13:41;3.20;;;3.00;;
8331;SDS011;4203;48.144;14.118;2023-04-15T06:16:08;3.30;;;3.10;;
8331;SDS011;4203;48.144;14.118;2023-04-15T06:18:37;3.30;;;3.10;;
8331;SDS011;4203;48.144;14.118;2023-04-15T06:21:04;3.17;;;2.97;;
8331;SDS011;4203;48.144;14.118;2023-04-15T06:23:33;3.83;;;3.37;;
8331;SDS011;4203;48.144;14.118;2023-04-15T06:26:00;3.87;;;3.47;;
8331;SDS011;4203;48.144;14.118;2023-04-15T06:28:27;4.13;;;3.63;;
8331;SDS011;4203;48.144;14.118;2023-04-15T06:30:55;4.20;;;3.20;;
8331;SDS011;4203;48.144;14.118;2023-04-15T06:33:22;2.67;;;2.57;;
8331;SDS011;4203;48.144;14.118;2023-04-15T06:35:50;2.63;;;2.53;;
8331;SDS011;4203;48.144;14.118;2023-04-15T06:38:17;2.83;;;2.63;;
8331;SDS011;4203;48.144;14.118;2023-04-15T06:40:44;3.47;;;2.60;;
8331;SDS011;4203;48.144;14.118;2023-04-15T06:43:12;3.30;;;2.80;;
8331;SDS011;4203;48.144;14.118;2023-04-15T06:45:39;2.93;;;2.73;;
8331;SDS011;4203;48.144;14.118;2023-04-15T06:48:06;2.90;;;2.70;;
8331;SDS011;4203;48.144;14.118;2023-04-15T06:50:33;3.43;;;2.70;;
8331;SDS011;4203;48.144;14.118;2023-04-15T06:53:02;2.87;;;2.63;;
8331;SDS011;4203;48.144;14.118;2023-04-15T06:55:29;2.90;;;2.70;;
8331;SDS011;4203;48.144;14.118;2023-04-15T06:57:58;3.03;;;2.30;;
8331;SDS011;4203;48.144;14.118;2023-04-15T07:00:25;2.33;;;2.23;;
8331;SDS011;4203;48.144;14.118;2023-04-15T07:02:52;2.43;;;2.33;;
8331;SDS011;4203;48.144;14.118;2023-04-15T07:05:20;2.30;;;2.20;;
8331;SDS011;4203;48.144;14.118;2023-04-15T07:07:47;2.80;;;2.70;;
8331;SDS011;4203;48.144;14.118;2023-04-15T07:10:18;3.20;;;2.90;;
8331;SDS011;4203;48.144;14.118;2023-04-15T07:12:47;2.37;;;2.27;;
8331;SDS011;4203;48.144;14.118;2023-04-15T07:15:17;2.40;;;2.30;;
8331;SDS011;4203;48.144;14.118;2023-04-15T07:17:46;1.80;;;1.70;;
8331;SDS011;4203;48.144;14.118;2023-04-15T07:20:16;1.90;;;1.80;;
8331;SDS011;4203;48.144;14.118;2023-04-15T07:22:45;1.93;;;1.83;;
8331;SDS011;4203;48.144;14.118;2023-04-15T07:25:18;1.80;;;1.70;;
8331;SDS011;4203;48.144;14.118;2023-04-15T07:27:51;1.87;;;1.80;;
8331;SDS011;4203;48.144;14.118;2023-04-15T07:30:21;2.00;;;1.90;;
8331;SDS011;4203;48.144;14.118;2023-04-15T07:32:50;2.17;;;2.07;;
8331;SDS011;4203;48.144;14.118;2023-04-15T07:35:19;2.17;;;2.07;;
8331;SDS011;4203;48.144;14.118;2023-04-15T07:37:51;2.53;;;2.40;;
8331;SDS011;4203;48.144;14.118;2023-04-15T07:40:23;2.30;;;2.20;;
8331;SDS011;4203;48.144;14.118;2023-04-15T07:42:53;2.60;;;2.50;;
8331;SDS011;4203;48.144;14.118;2023-04-15T07:45:24;2.43;;;2.27;;
8331;SDS011;4203;48.144;14.118;2023-04-15T07:47:51;2.30;;;2.20;;
8331;SDS011;4203;48.144;14.118;2023-04-15T07:50:20;2.50;;;2.40;;
8331;SDS011;4203;48.144;14.118;2023-04-15T07:52:47;2.87;;;2.77;;
8331;SDS011;4203;48.144;14.118;2023-04-15T07:55:15;2.90;;;2.80;;
8331;SDS011;4203;48.144;14.118;2023-04-15T07:57:45;3.40;;;3.20;;
8331;SDS011;4203;48.144;14.118;2023-04-15T08:00:14;3.20;;;3.00;;
8331;SDS011;4203;48.144;14.118;2023-04-15T08:02:42;3.03;;;2.83;;
8331;SDS011;4203;48.144;14.118;2023-04-15T08:05:10;2.90;;;2.80;;
8331;SDS011;4203;48.144;14.118;2023-04-15T08:07:39;3.00;;;2.90;;
8331;SDS011;4203;48.144;14.118;2023-04-15T08:10:07;3.33;;;3.13;;
8331;SDS011;4203;48.144;14.118;2023-04-15T08:12:35;2.90;;;2.80;;
8331;SDS011;4203;48.144;14.118;2023-04-15T08:15:04;3.23;;;2.93;;
8331;SDS011;4203;48.144;14.118;2023-04-15T08:17:32;2.80;;;2.60;;
8331;SDS011;4203;48.144;14.118;2023-04-15T08:19:59;2.70;;;2.60;;
8331;SDS011;4203;48.144;14.118;2023-04-15T08:22:26;3.20;;;3.00;;
8331;SDS011;4203;48.144;14.118;2023-04-15T08:24:53;3.10;;;2.90;;
8331;SDS011;4203;48.144;14.118;2023-04-15T08:27:20;3.13;;;2.93;;
8331;SDS011;4203;48.144;14.118;2023-04-15T08:29:48;4.07;;;3.30;;
8331;SDS011;4203;48.144;14.118;2023-04-15T08:32:17;3.10;;;2.90;;
8331;SDS011;4203;48.144;14.118;2023-04-15T08:34:44;2.60;;;2.50;;
8331;SDS011;4203;48.144;14.118;2023-04-15T08:37:12;3.13;;;2.93;;
8331;SDS011;4203;48.144;14.118;2023-04-15T08:39:39;3.00;;;2.80;;
8331;SDS011;4203;48.144;14.118;2023-04-15T08:42:09;2.70;;;2.60;;
8331;SDS011;4203;48.144;14.118;2023-04-15T08:44:41;1.93;;;1.83;;
8331;SDS011;4203;48.144;14.118;2023-04-15T08:47:10;2.73;;;2.53;;
8331;SDS011;4203;48.144;14.118;2023-04-15T08:49:41;2.50;;;2.40;;
8331;SDS011;4203;48.144;14.118;2023-04-15T08:52:09;3.10;;;2.40;;
8331;SDS011;4203;48.144;14.118;2023-04-15T08:54:36;2.30;;;2.20;;
8331;SDS011;4203;48.144;14.118;2023-04-15T08:57:04;1.90;;;1.80;;
8331;SDS011;4203;48.144;14.118;2023-04-15T08:59:32;1.77;;;1.70;;
8331;SDS011;4203;48.144;14.118;2023-04-15T09:01:59;1.70;;;1.60;;
8331;SDS011;4203;48.144;14.118;2023-04-15T09:04:30;1.30;;;1.30;;
8331;SDS011;4203;48.144;14.118;2023-04-15T09:07:00;1.30;;;1.30;;
8331;SDS011;4203;48.144;14.118;2023-04-15T09:09:27;1.70;;;1.60;;
8331;SDS011;4203;48.144;14.118;2023-04-15T09:11:55;1.43;;;1.43;;
8331;SDS011;4203;48.144;14.118;2023-04-15T09:14:22;1.37;;;1.37;;
8331;SDS011;4203;48.144;14.118;2023-04-15T09:16:55;1.30;;;1.20;;
8331;SDS011;4203;48.144;14.118;2023-04-15T09:19:23;1.90;;;1.50;;
8331;SDS011;4203;48.144;14.118;2023-04-15T09:21:52;1.60;;;1.50;;
8331;SDS011;4203;48.144;14.118;2023-04-15T09:24:23;1.60;;;1.53;;
8331;SDS011;4203;48.144;14.118;2023-04-15T09:26:51;1.70;;;1.60;;
8331;SDS011;4203;48.144;14.118;2023-04-15T09:29:20;1.40;;;1.40;;
8331;SDS011;4203;48.144;14.118;2023-04-15T09:31:51;1.47;;;1.47;;
8331;SDS011;4203;48.144;14.118;2023-04-15T09:34:18;1.33;;;1.33;;
8331;SDS011;4203;48.144;14.118;2023-04-15T09:36:51;1.60;;;1.60;;
8331;SDS011;4203;48.144;14.118;2023-04-15T09:39:20;1.40;;;1.40;;
8331;SDS011;4203;48.144;14.118;2023-04-15T09:44:40;1.27;;;1.27;;
8331;SDS011;4203;48.144;14.118;2023-04-15T09:47:07;1.60;;;1.60;;
8331;SDS011;4203;48.144;14.118;2023-04-15T09:49:35;1.40;;;1.40;;
8331;SDS011;4203;48.144;14.118;2023-04-15T09:52:02;1.60;;;1.60;;
8331;SDS011;4203;48.144;14.118;2023-04-15T09:54:33;1.63;;;1.60;;
8331;SDS011;4203;48.144;14.118;2023-04-15T09:57:05;1.43;;;1.43;;
8331;SDS011;4203;48.144;14.118;2023-04-15T09:59:34;1.60;;;1.60;;
8331;SDS011;4203;48.144;14.118;2023-04-15T10:02:04;2.13;;;2.07;;
8331;SDS011;4203;48.144;14.118;2023-04-15T10:04:34;1.50;;;1.50;;
8331;SDS011;4203;48.144;14.118;2023-04-15T10:07:02;1.60;;;1.50;;
8331;SDS011;4203;48.144;14.118;2023-04-15T10:09:30;1.67;;;1.67;;
8331;SDS011;4203;48.144;14.118;2023-04-15T10:12:00;1.80;;;1.70;;
8331;SDS011;4203;48.144;14.118;2023-04-15T10:14:33;1.63;;;1.53;;
8331;SDS011;4203;48.144;14.118;2023-04-15T10:17:04;1.60;;;1.60;;
8331;SDS011;4203;48.144;14.118;2023-04-15T10:19:36;1.80;;;1.70;;
8331;SDS011;4203;48.144;14.118;2023-04-15T10:22:04;1.73;;;1.70;;
8331;SDS011;4203;48.144;14.118;2023-04-15T10:24:34;1.90;;;1.80;;
8331;SDS011;4203;48.144;14.118;2023-04-15T10:27:05;2.10;;;2.00;;
8331;SDS011;4203;48.144;14.118;2023-04-15T10:29:34;2.30;;;2.20;;
8331;SDS011;4203;48.144;14.118;2023-04-15T10:32:01;2.20;;;2.10;;
8331;SDS011;4203;48.144;14.118;2023-04-15T10:34:31;2.07;;;1.90;;
8331;SDS011;4203;48.144;14.118;2023-04-15T10:37:00;2.50;;;2.40;;
8331;SDS011;4203;48.144;14.118;2023-04-15T10:39:40;2.20;;;2.10;;
8331;SDS011;4203;48.144;14.118;2023-04-15T10:42:09;2.20;;;2.10;;
8331;SDS011;4203;48.144;14.118;2023-04-15T10:44:37;2.53;;;2.30;;
8331;SDS011;4203;48.144;14.118;2023-04-15T10:47:13;2.50;;;2.40;;
8331;SDS011;4203;48.144;14.118;2023-04-15T10:49:46;2.80;;;2.60;;
8331;SDS011;4203;48.144;14.118;2023-04-15T10:52:22;2.40;;;2.30;;
8331;SDS011;4203;48.144;14.118;2023-04-15T10:55:00;2.70;;;2.60;;
8331;SDS011;4203;48.144;14.118;2023-04-15T10:57:33;2.40;;;2.30;;
8331;SDS011;4203;48.144;14.118;2023-04-15T11:00:03;3.10;;;2.90;;
8331;SDS011;4203;48.144;14.118;2023-04-15T11:02:40;2.67;;;2.57;;
8331;SDS011;4203;48.144;14.118;2023-04-15T11:05:09;2.80;;;2.60;;
8331;SDS011;4203;48.144;14.118;2023-04-15T11:07:47;2.77;;;2.67;;
8331;SDS011;4203;48.144;14.118;2023-04-15T11:13:19;2.70;;;2.60;;
8331;SDS011;4203;48.144;14.118;2023-04-15T11:15:47;2.90;;;2.70;;
8331;SDS011;4203;48.144;14.118;2023-04-15T11:18:17;2.80;;;2.70;;
8331;SDS011;4203;48.144;14.118;2023-04-15T11:20:47;2.70;;;2.50;;
8331;SDS011;4203;48.144;14.118;2023-04-15T11:23:16;3.10;;;2.57;;
8331;SDS011;4203;48.144;14.118;2023-04-15T11:25:44;2.70;;;2.53;;
8331;SDS011;4203;48.144;14.118;2023-04-15T11:28:12;2.93;;;2.73;;
8331;SDS011;4203;48.144;14.118;2023-04-15T11:30:40;2.60;;;2.50;;
8331;SDS011;4203;48.144;14.118;2023-04-15T11:33:09;2.50;;;2.30;;
8331;SDS011;4203;48.144;14.118;2023-04-15T11:35:39;2.50;;;2.40;;
8331;SDS011;4203;48.144;14.118;2023-04-15T11:38:07;2.83;;;2.63;;
8331;SDS011;4203;48.144;14.118;2023-04-15T11:40:36;2.33;;;2.23;;
8331;SDS011;4203;48.144;14.118;2023-04-15T11:43:04;2.47;;;2.37;;
8331;SDS011;4203;48.144;14.118;2023-04-15T11:45:32;2.17;;;2.07;;
8331;SDS011;4203;48.144;14.118;2023-04-15T11:48:06;2.20;;;2.10;;
8331;SDS011;4203;48.144;14.118;2023-04-15T11:50:34;2.20;;;2.10;;
8331;SDS011;4203;48.144;14.118;2023-04-15T11:53:03;2.17;;;2.07;;
8331;SDS011;4203;48.144;14.118;2023-04-15T11:55:39;2.30;;;2.20;;
8331;SDS011;4203;48.144;14.118;2023-04-15T11:58:08;4.90;;;3.77;;
8331;SDS011;4203;48.144;14.118;2023-04-15T12:00:37;4.93;;;3.50;;
8331;SDS011;4203;48.144;14.118;2023-04-15T12:03:11;2.20;;;2.10;;
8331;SDS011;4203;48.144;14.118;2023-04-15T12:08:57;3.30;;;3.00;;
8331;SDS011;4203;48.144;14.118;2023-04-15T12:11:36;3.50;;;3.20;;
8331;SDS011;4203;48.144;14.118;2023-04-15T12:14:06;1.97;;;1.87;;
8331;SDS011;4203;48.144;14.118;2023-04-15T12:16:48;2.90;;;2.70;;
8331;SDS011;4203;48.144;14.118;2023-04-15T12:19:21;4.57;;;4.17;;
8331;SDS011;4203;48.144;14.118;2023-04-15T12:21:52;2.00;;;1.90;;
8331;SDS011;4203;48.144;14.118;2023-04-15T12:24:25;2.30;;;2.20;;
8331;SDS011;4203;48.144;14.118;2023-04-15T12:26:53;2.63;;;2.43;;
8331;SDS011;4203;48.144;14.118;2023-04-15T12:29:24;3.30;;;3.00;;
8331;SDS011;4203;48.144;14.118;2023-04-15T12:31:52;12.77;;;8.40;;
8331;SDS011;4203;48.144;14.118;2023-04-15T12:34:27;7.70;;;4.83;;
8331;SDS011;4203;48.144;14.118;2023-04-15T12:36:55;8.03;;;5.53;;
8331;SDS011;4203;48.144;14.118;2023-04-15T12:39:23;8.43;;;5.70;;
8331;SDS011;4203;48.144;14.118;2023-04-15T12:41:53;4.90;;;3.93;;
8331;SDS011;4203;48.144;14.118;2023-04-15T12:44:21;8.57;;;5.77;;
8331;SDS011;4203;48.144;14.118;2023-04-15T12:46:49;7.07;;;4.83;;
8331;SDS011;4203;48.144;14.118;2023-04-15T12:49:16;4.03;;;3.63;;
8331;SDS011;4203;48.144;14.118;2023-04-15T12:51:45;4.13;;;3.83;;
8331;SDS011;4203;48.144;14.118;2023-04-15T12:54:14;2.17;;;2.07;;
8331;SDS011;4203;48.144;14.118;2023-04-15T12:56:43;2.03;;;1.93;;
8331;SDS011;4203;48.144;14.118;2023-04-15T12:59:11;3.87;;;3.53;;
8331;SDS011;4203;48.144;14.118;2023-04-15T13:01:40;2.10;;;2.00;;
8331;SDS011;4203;48.144;14.118;2023-04-15T13:04:07;2.73;;;2.53;;
8331;SDS011;4203;48.144;14.118;2023-04-15T13:06:34;2.40;;;2.20;;
8331;SDS011;4203;48.144;14.118;2023-04-15T13:09:02;3.63;;;3.33;;
8331;SDS011;4203;48.144;14.118;2023-04-15T13:11:32;2.50;;;2.40;;
8331;SDS011;4203;48.144;14.118;2023-04-15T13:14:02;2.60;;;2.50;;
8331;SDS011;4203;48.144;14.118;2023-04-15T13:16:30;2.77;;;2.57;;
8331;SDS011;4203;48.144;14.118;2023-04-15T13:18:57;2.43;;;2.33;;
8331;SDS011;4203;48.144;14.118;2023-04-15T13:21:25;2.70;;;2.53;;
8331;SDS011;4203;48.144;14.118;2023-04-15T13:23:52;2.83;;;2.63;;
8331;SDS011;4203;48.144;14.118;2023-04-15T13:26:20;3.00;;;2.80;;
8331;SDS011;4203;48.144;14.118;2023-04-15T13:28:47;3.03;;;2.90;;
8331;SDS011;4203;48.144;14.118;2023-04-15T13:31:16;2.80;;;2.60;;
8331;SDS011;4203;48.144;14.118;2023-04-15T13:33:43;2.80;;;2.67;;
8331;SDS011;4203;48.144;14.118;2023-04-15T13:36:10;3.03;;;2.83;;
8331;SDS011;4203;48.144;14.118;2023-04-15T13:38:37;2.90;;;2.70;;
8331;SDS011;4203;48.144;14.118;2023-04-15T13:41:04;3.37;;;3.17;;
8331;SDS011;4203;48.144;14.118;2023-04-15T13:43:31;3.73;;;3.43;;
8331;SDS011;4203;48.144;14.118;2023-04-15T13:45:58;3.73;;;3.53;;
8331;SDS011;4203;48.144;14.118;2023-04-15T13:48:27;3.47;;;3.27;;
8331;SDS011;4203;48.144;14.118;2023-04-15T13:50:55;2.93;;;2.83;;
8331;SDS011;4203;48.144;14.118;2023-04-15T13:53:22;4.20;;;3.80;;
8331;SDS011;4203;48.144;14.118;2023-04-15T13:55:50;3.50;;;3.30;;
8331;SDS011;4203;48.144;14.118;2023-04-15T13:58:17;3.77;;;3.53;;
8331;SDS011;4203;48.144;14.118;2023-04-15T14:00:44;3.57;;;3.30;;
8331;SDS011;4203;48.144;14.118;2023-04-15T14:03:11;3.70;;;3.50;;
8331;SDS011;4203;48.144;14.118;2023-04-15T14:05:40;4.30;;;3.83;;
8331;SDS011;4203;48.144;14.118;2023-04-15T14:08:07;3.70;;;3.40;;
8331;SDS011;4203;48.144;14.118;2023-04-15T14:10:34;3.37;;;3.03;;
8331;SDS011;4203;48.144;14.118;2023-04-15T14:13:01;3.13;;;2.93;;
8331;SDS011;4203;48.144;14.118;2023-04-15T14:15:28;3.60;;;3.30;;
8331;SDS011;4203;48.144;14.118;2023-04-15T14:17:56;3.37;;;3.07;;
8331;SDS011;4203;48.144;14.118;2023-04-15T14:20:23;3.63;;;3.40;;
8331;SDS011;4203;48.144;14.118;2023-04-15T14:22:52;3.70;;;3.40;;
8331;SDS011;4203;48.144;14.118;2023-04-15T14:25:19;3.37;;;3.17;;
8331;SDS011;4203;48.144;14.118;2023-04-15T14:27:46;3.17;;;2.93;;
8331;SDS011;4203;48.144;14.118;2023-04-15T14:30:14;3.47;;;3.27;;
8331;SDS011;4203;48.144;14.118;2023-04-15T14:32:41;3.50;;;3.30;;
8331;SDS011;4203;48.144;14.118;2023-04-15T14:35:08;3.47;;;3.27;;
8331;SDS011;4203;48.144;14.118;2023-04-15T14:37:38;4.13;;;3.93;;
8331;SDS011;4203;48.144;14.118;2023-04-15T14:40:09;4.13;;;3.83;;
8331;SDS011;4203;48.144;14.118;2023-04-15T14:42:36;5.13;;;3.97;;
8331;SDS011;4203;48.144;14.118;2023-04-15T14:45:04;4.33;;;3.90;;
8331;SDS011;4203;48.144;14.118;2023-04-15T14:47:31;4.53;;;4.13;;
8331;SDS011;4203;48.144;14.118;2023-04-15T14:49:58;4.00;;;3.80;;
8331;SDS011;4203;48.144;14.118;2023-04-15T14:52:27;5.13;;;4.73;;
8331;SDS011;4203;48.144;14.118;2023-04-15T14:54:57;5.40;;;5.00;;
8331;SDS011;4203;48.144;14.118;2023-04-15T14:57:27;6.00;;;5.60;;
8331;SDS011;4203;48.144;14.118;2023-04-15T14:59:54;5.60;;;5.10;;
8331;SDS011;4203;48.144;14.118;2023-04-15T15:02:21;6.23;;;5.63;;
8331;SDS011;4203;48.144;14.118;2023-04-15T15:04:48;6.87;;;6.20;;
8331;SDS011;4203;48.144;14.118;2023-04-15T15:07:15;6.77;;;6.17;;
8331;SDS011;4203;48.144;14.118;2023-04-15T15:09:42;7.27;;;6.10;;
8331;SDS011;4203;48.144;14.118;2023-04-15T15:12:10;5.80;;;5.30;;
8331;SDS011;4203;48.144;14.118;2023-04-15T15:14:38;6.67;;;6.17;;
8331;SDS011;4203;48.144;14.118;2023-04-15T15:17:06;5.93;;;5.43;;